sensor_id;sensor_type;location;lat;lon;timestamp;pressure;altitude;pressure_sealevel;temperature;humidity
22647;BME280;11490;42.726;23.268;2023-09-19T00:01:06;95594.16;;;17.30;88.61
22647;BME280;11490;42.726;23.268;2023-09-19T00:03:36;95570.72;;;16.85;90.47
22647;BME280;11490;42.726;23.268;2023-09-19T00:06:03;95556.66;;;16.68;91.04
22647;BME280;11490;42.726;23.268;2023-09-19T00:08:30;95606.56;;;17.21;89.64
22647;BME280;11490;42.726;23.268;2023-09-19T00:10:55;95588.25;;;17.03;90.22
22647;BME280;11490;42.726;23.268;2023-09-19T00:13:21;95580.69;;;17.25;89.53
22647;BME280;11490;42.726;23.268;2023-09-19T00:15:48;95604.41;;;17.13;90.63
22647;BME280;11490;42.726;23.268;2023-09-19T00:18:14;95565.59;;;17.09;90.22
22647;BME280;11490;42.726;23.268;2023-09-19T00:20:41;95569.34;;;16.78;92.26
22647;BME280;11490;42.726;23.268;2023-09-19T00:23:07;95607.91;;;17.29;90.74
22647;BME280;11490;42.726;23.268;2023-09-19T00:25:36;95581.75;;;16.99;91.81
22647;BME280;11490;42.726;23.268;2023-09-19T00:28:03;95563.16;;;17.08;90.72
22647;BME280;11490;42.726;23.268;2023-09-19T00:30:29;95588.19;;;16.88;92.78
22647;BME280;11490;42.726;23.268;2023-09-19T00:32:54;95552.03;;;16.53;93.91
22647;BME280;11490;42.726;23.268;2023-09-19T00:35:20;95562.00;;;16.53;93.86
22647;BME280;11490;42.726;23.268;2023-09-19T00:37:49;95554.78;;;16.64;93.96
22647;BME280;11490;42.726;23.268;2023-09-19T00:40:15;95595.75;;;16.91;93.72
22647;BME280;11490;42.726;23.268;2023-09-19T00:42:45;95556.66;;;16.73;92.72
22647;BME280;11490;42.726;23.268;2023-09-19T00:45:12;95586.53;;;16.57;94.18
22647;BME280;11490;42.726;23.268;2023-09-19T00:47:39;95578.75;;;16.65;94.07
22647;BME280;11490;42.726;23.268;2023-09-19T00:50:06;95592.25;;;16.90;93.82
22647;BME280;11490;42.726;23.268;2023-09-19T00:52:34;95567.22;;;17.10;92.26
22647;BME280;11490;42.726;23.268;2023-09-19T00:55:02;95558.03;;;17.11;91.50
22647;BME280;11490;42.726;23.268;2023-09-19T00:57:29;95581.22;;;17.33;90.94
22647;BME280;11490;42.726;23.268;2023-09-19T00:59:58;95555.88;;;17.23;90.69
22647;BME280;11490;42.726;23.268;2023-09-19T01:02:25;95595.78;;;17.57;90.41
22647;BME280;11490;42.726;23.268;2023-09-19T01:04:54;95572.06;;;17.34;90.21
22647;BME280;11490;42.726;23.268;2023-09-19T01:07:20;95567.75;;;16.97;91.82
22647;BME280;11490;42.726;23.268;2023-09-19T01:09:47;95582.84;;;17.28;91.31
22647;BME280;11490;42.726;23.268;2023-09-19T01:12:16;95593.63;;;17.34;91.83
22647;BME280;11490;42.726;23.268;2023-09-19T01:14:56;95596.03;;;17.35;91.32
22647;BME280;11490;42.726;23.268;2023-09-19T01:17:27;95605.78;;;17.41;91.40
22647;BME280;11490;42.726;23.268;2023-09-19T01:20:15;95588.78;;;17.41;90.40
22647;BME280;11490;42.726;23.268;2023-09-19T01:23:07;95601.19;;;17.62;89.87
22647;BME280;11490;42.726;23.268;2023-09-19T01:28:54;95572.06;;;17.23;91.17
22647;BME280;11490;42.726;23.268;2023-09-19T01:31:29;95577.97;;;17.46;90.96
22647;BME280;11490;42.726;23.268;2023-09-19T01:34:01;95564.50;;;17.46;90.32
22647;BME280;11490;42.726;23.268;2023-09-19T01:36:34;95576.06;;;17.66;89.14
22647;BME280;11490;42.726;23.268;2023-09-19T01:39:03;95566.94;;;17.47;89.08
22647;BME280;11490;42.726;23.268;2023-09-19T01:47:33;95590.38;;;17.47;89.89
22647;BME280;11490;42.726;23.268;2023-09-19T01:52:49;95608.97;;;17.53;89.53
22647;BME280;11490;42.726;23.268;2023-09-19T01:55:16;95578.28;;;17.34;89.07
22647;BME280;11490;42.726;23.268;2023-09-19T02:00:40;95588.50;;;17.22;91.44
22647;BME280;11490;42.726;23.268;2023-09-19T02:03:07;95575.28;;;17.05;91.92
22647;BME280;11490;42.726;23.268;2023-09-19T02:05:33;95585.00;;;17.01;92.70
22647;BME280;11490;42.726;23.268;2023-09-19T02:07:59;95594.16;;;17.15;92.17
22647;BME280;11490;42.726;23.268;2023-09-19T02:10:25;95595.78;;;17.31;91.44
22647;BME280;11490;42.726;23.268;2023-09-19T02:12:51;95586.09;;;17.15;90.97
22647;BME280;11490;42.726;23.268;2023-09-19T02:15:16;95586.06;;;17.05;92.53
22647;BME280;11490;42.726;23.268;2023-09-19T02:17:45;95566.69;;;17.03;92.48
22647;BME280;11490;42.726;23.268;2023-09-19T02:20:12;95572.31;;;16.76;94.03
22647;BME280;11490;42.726;23.268;2023-09-19T02:22:43;95575.25;;;16.70;95.18
22647;BME280;11490;42.726;23.268;2023-09-19T02:25:09;95586.63;;;17.07;93.07
22647;BME280;11490;42.726;23.268;2023-09-19T02:27:35;95568.00;;;16.90;94.09
22647;BME280;11490;42.726;23.268;2023-09-19T02:30:01;95565.59;;;16.99;93.52
22647;BME280;11490;42.726;23.268;2023-09-19T02:32:29;95556.97;;;16.92;92.39
22647;BME280;11490;42.726;23.268;2023-09-19T02:34:59;95568.03;;;17.01;92.23
22647;BME280;11490;42.726;23.268;2023-09-19T02:37:24;95546.72;;;16.94;92.48
22647;BME280;11490;42.726;23.268;2023-09-19T02:39:50;95570.44;;;17.02;93.57
22647;BME280;11490;42.726;23.268;2023-09-19T02:42:15;95541.31;;;16.74;94.03
22647;BME280;11490;42.726;23.268;2023-09-19T02:44:41;95542.41;;;16.88;93.91
22647;BME280;11490;42.726;23.268;2023-09-19T02:47:06;95564.53;;;16.95;93.69
22647;BME280;11490;42.726;23.268;2023-09-19T02:49:32;95557.25;;;17.01;92.39
22647;BME280;11490;42.726;23.268;2023-09-19T02:51:58;95528.41;;;16.71;93.76
22647;BME280;11490;42.726;23.268;2023-09-19T02:54:24;95554.28;;;16.92;93.80
22647;BME280;11490;42.726;23.268;2023-09-19T02:56:49;95560.19;;;17.04;92.99
22647;BME280;11490;42.726;23.268;2023-09-19T02:59:15;95554.81;;;16.99;93.35
22647;BME280;11490;42.726;23.268;2023-09-19T03:01:43;95533.00;;;16.96;93.29
22647;BME280;11490;42.726;23.268;2023-09-19T03:04:08;95545.13;;;17.08;91.99
22647;BME280;11490;42.726;23.268;2023-09-19T03:06:37;95540.81;;;17.07;91.99
22647;BME280;11490;42.726;23.268;2023-09-19T03:09:03;95550.75;;;17.27;91.63
22647;BME280;11490;42.726;23.268;2023-09-19T03:11:31;95532.16;;;17.15;90.83
22647;BME280;11490;42.726;23.268;2023-09-19T03:13:56;95519.22;;;16.97;90.44
22647;BME280;11490;42.726;23.268;2023-09-19T03:16:23;95519.19;;;16.57;92.38
22647;BME280;11490;42.726;23.268;2023-09-19T03:18:48;95528.31;;;16.40;93.55
22647;BME280;11490;42.726;23.268;2023-09-19T03:21:15;95532.63;;;16.41;93.34
22647;BME280;11490;42.726;23.268;2023-09-19T03:23:41;95553.63;;;16.44;93.11
22647;BME280;11490;42.726;23.268;2023-09-19T03:26:06;95504.31;;;16.34;92.47
22647;BME280;11490;42.726;23.268;2023-09-19T03:28:33;95519.44;;;16.40;92.61
22647;BME280;11490;42.726;23.268;2023-09-19T03:31:03;95534.22;;;16.32;93.30
22647;BME280;11490;42.726;23.268;2023-09-19T03:33:29;95526.63;;;16.19;92.68
22647;BME280;11490;42.726;23.268;2023-09-19T03:35:57;95538.50;;;16.18;92.81
22647;BME280;11490;42.726;23.268;2023-09-19T03:38:24;95547.66;;;16.27;92.63
22647;BME280;11490;42.726;23.268;2023-09-19T03:40:50;95533.56;;;16.00;93.38
22647;BME280;11490;42.726;23.268;2023-09-19T03:43:15;95529.75;;;15.86;93.34
22647;BME280;11490;42.726;23.268;2023-09-19T03:45:40;95523.81;;;15.84;93.50
22647;BME280;11490;42.726;23.268;2023-09-19T03:48:09;95584.75;;;16.10;94.46
22647;BME280;11490;42.726;23.268;2023-09-19T03:50:35;95570.75;;;16.13;93.25
22647;BME280;11490;42.726;23.268;2023-09-19T03:53:00;95546.31;;;15.62;94.65
22647;BME280;11490;42.726;23.268;2023-09-19T03:55:26;95545.19;;;15.58;95.37
22647;BME280;11490;42.726;23.268;2023-09-19T03:57:52;95549.34;;;15.81;94.46
22647;BME280;11490;42.726;23.268;2023-09-19T04:00:18;95544.28;;;15.85;94.51
22647;BME280;11490;42.726;23.268;2023-09-19T04:02:46;95572.06;;;16.05;93.71
22647;BME280;11490;42.726;23.268;2023-09-19T04:05:11;95539.47;;;15.92;93.19
22647;BME280;11490;42.726;23.268;2023-09-19T04:07:37;95551.31;;;15.96;92.80
22647;BME280;11490;42.726;23.268;2023-09-19T04:10:02;95588.53;;;16.19;92.99
22647;BME280;11490;42.726;23.268;2023-09-19T04:12:28;95577.25;;;16.17;92.69
22647;BME280;11490;42.726;23.268;2023-09-19T04:14:53;95584.75;;;16.15;93.13
22647;BME280;11490;42.726;23.268;2023-09-19T04:17:19;95574.50;;;16.07;93.51
22647;BME280;11490;42.726;23.268;2023-09-19T04:19:45;95531.81;;;15.63;96.03
22647;BME280;11490;42.726;23.268;2023-09-19T04:22:11;95557.69;;;15.79;96.17
22647;BME280;11490;42.726;23.268;2023-09-19T04:24:37;95544.91;;;16.02;95.42
22647;BME280;11490;42.726;23.268;2023-09-19T04:27:04;95577.75;;;16.19;94.88
22647;BME280;11490;42.726;23.268;2023-09-19T04:29:29;95569.72;;;16.29;94.42
22647;BME280;11490;42.726;23.268;2023-09-19T04:31:55;95517.13;;;15.91;93.74
22647;BME280;11490;42.726;23.268;2023-09-19T04:34:22;95527.50;;;15.62;95.76
22647;BME280;11490;42.726;23.268;2023-09-19T04:36:49;95549.72;;;16.05;95.58
22647;BME280;11490;42.726;23.268;2023-09-19T04:39:15;95532.31;;;16.17;94.41
22647;BME280;11490;42.726;23.268;2023-09-19T04:41:40;95552.50;;;16.25;94.40
22647;BME280;11490;42.726;23.268;2023-09-19T04:44:06;95553.84;;;16.17;95.96
22647;BME280;11490;42.726;23.268;2023-09-19T04:46:33;95540.63;;;16.21;95.61
22647;BME280;11490;42.726;23.268;2023-09-19T04:48:58;95560.63;;;16.45;94.83
22647;BME280;11490;42.726;23.268;2023-09-19T04:51:24;95554.69;;;16.43;94.66
22647;BME280;11490;42.726;23.268;2023-09-19T04:53:50;95548.78;;;16.51;93.68
22647;BME280;11490;42.726;23.268;2023-09-19T04:56:16;95568.78;;;16.61;94.85
22647;BME280;11490;42.726;23.268;2023-09-19T04:58:47;95554.19;;;16.46;94.95
22647;BME280;11490;42.726;23.268;2023-09-19T05:01:15;95516.44;;;16.31;95.30
22647;BME280;11490;42.726;23.268;2023-09-19T05:03:41;95534.84;;;16.70;94.90
22647;BME280;11490;42.726;23.268;2023-09-19T05:06:10;95512.19;;;16.55;95.60
22647;BME280;11490;42.726;23.268;2023-09-19T05:08:38;95499.25;;;16.58;95.08
22647;BME280;11490;42.726;23.268;2023-09-19T05:11:03;95554.00;;;17.19;94.03
22647;BME280;11490;42.726;23.268;2023-09-19T05:13:29;95547.78;;;17.28;92.60
22647;BME280;11490;42.726;23.268;2023-09-19T05:16:00;95544.25;;;17.43;91.14
22647;BME280;11490;42.726;23.268;2023-09-19T05:18:27;95556.94;;;17.68;90.81
22647;BME280;11490;42.726;23.268;2023-09-19T05:20:53;95534.53;;;17.67;89.12
22647;BME280;11490;42.726;23.268;2023-09-19T05:23:19;95567.94;;;17.92;88.80
22647;BME280;11490;42.726;23.268;2023-09-19T05:25:46;95541.16;;;18.11;87.90
22647;BME280;11490;42.726;23.268;2023-09-19T05:28:11;95526.50;;;18.27;87.19
22647;BME280;11490;42.726;23.268;2023-09-19T05:30:40;95536.75;;;18.20;88.28
22647;BME280;11490;42.726;23.268;2023-09-19T05:33:09;95545.72;;;18.69;86.58
22647;BME280;11490;42.726;23.268;2023-09-19T05:35:35;95545.72;;;18.69;84.39
22647;BME280;11490;42.726;23.268;2023-09-19T05:38:07;95536.28;;;18.07;87.52
22647;BME280;11490;42.726;23.268;2023-09-19T05:40:34;95549.25;;;18.05;88.27
22647;BME280;11490;42.726;23.268;2023-09-19T05:43:00;95543.69;;;18.41;88.04
22647;BME280;11490;42.726;23.268;2023-09-19T05:45:27;95528.03;;;18.38;87.04
22647;BME280;11490;42.726;23.268;2023-09-19T05:47:53;95521.88;;;18.27;86.47
22647;BME280;11490;42.726;23.268;2023-09-19T05:50:47;95519.00;;;18.08;87.85
22647;BME280;11490;42.726;23.268;2023-09-19T05:53:13;95534.09;;;18.69;85.99
22647;BME280;11490;42.726;23.268;2023-09-19T05:55:40;95547.66;;;18.98;85.19
22647;BME280;11490;42.726;23.268;2023-09-19T05:58:05;95536.84;;;18.98;84.45
22647;BME280;11490;42.726;23.268;2023-09-19T06:00:31;95502.03;;;18.96;83.52
22647;BME280;11490;42.726;23.268;2023-09-19T06:02:58;95514.59;;;19.11;83.72
22647;BME280;11490;42.726;23.268;2023-09-19T06:05:25;95531.97;;;19.63;81.83
22647;BME280;11490;42.726;23.268;2023-09-19T06:07:52;95509.94;;;19.45;82.46
22647;BME280;11490;42.726;23.268;2023-09-19T06:10:17;95511.16;;;19.87;80.91
22647;BME280;11490;42.726;23.268;2023-09-19T06:12:43;95523.59;;;20.35;79.62
22647;BME280;11490;42.726;23.268;2023-09-19T06:15:12;95538.34;;;20.99;77.05
22647;BME280;11490;42.726;23.268;2023-09-19T06:20:14;95527.13;;;21.57;73.50
22647;BME280;11490;42.726;23.268;2023-09-19T06:22:43;95541.09;;;21.18;74.17
22647;BME280;11490;42.726;23.268;2023-09-19T06:25:09;95533.34;;;21.44;73.67
22647;BME280;11490;42.726;23.268;2023-09-19T06:27:36;95512.03;;;21.51;73.68
22647;BME280;11490;42.726;23.268;2023-09-19T06:30:05;95525.91;;;20.98;73.73
22647;BME280;11490;42.726;23.268;2023-09-19T06:32:32;95510.69;;;19.22;79.27
22647;BME280;11490;42.726;23.268;2023-09-19T06:34:57;95520.88;;;19.88;78.47
22647;BME280;11490;42.726;23.268;2023-09-19T06:37:27;95542.41;;;19.45;80.06
22647;BME280;11490;42.726;23.268;2023-09-19T06:40:02;95514.97;;;19.28;82.14
22647;BME280;11490;42.726;23.268;2023-09-19T06:42:28;95510.97;;;18.92;82.67
22647;BME280;11490;42.726;23.268;2023-09-19T06:44:53;95519.72;;;19.41;81.10
22647;BME280;11490;42.726;23.268;2023-09-19T06:47:19;95502.03;;;19.54;81.02
22647;BME280;11490;42.726;23.268;2023-09-19T06:49:45;95521.03;;;19.44;81.61
22647;BME280;11490;42.726;23.268;2023-09-19T06:52:11;95518.31;;;19.20;81.68
22647;BME280;11490;42.726;23.268;2023-09-19T06:54:36;95529.59;;;19.27;81.60
22647;BME280;11490;42.726;23.268;2023-09-19T06:57:03;95506.00;;;19.62;81.89
22647;BME280;11490;42.726;23.268;2023-09-19T06:59:29;95508.59;;;19.19;81.49
22647;BME280;11490;42.726;23.268;2023-09-19T07:01:54;95525.97;;;19.08;81.02
22647;BME280;11490;42.726;23.268;2023-09-19T07:04:20;95529.56;;;18.64;83.02
22647;BME280;11490;42.726;23.268;2023-09-19T07:06:52;95543.31;;;19.02;81.39
22647;BME280;11490;42.726;23.268;2023-09-19T07:09:17;95523.94;;;18.45;83.04
22647;BME280;11490;42.726;23.268;2023-09-19T07:11:44;95508.78;;;18.94;82.89
22647;BME280;11490;42.726;23.268;2023-09-19T07:14:10;95511.03;;;19.49;80.39
22647;BME280;11490;42.726;23.268;2023-09-19T07:16:37;95492.28;;;19.24;79.26
22647;BME280;11490;42.726;23.268;2023-09-19T07:19:04;95540.94;;;19.87;79.57
22647;BME280;11490;42.726;23.268;2023-09-19T07:21:29;95509.41;;;19.48;79.72
22647;BME280;11490;42.726;23.268;2023-09-19T07:23:55;95506.53;;;19.64;78.06
22647;BME280;11490;42.726;23.268;2023-09-19T07:26:20;95539.38;;;19.81;79.13
22647;BME280;11490;42.726;23.268;2023-09-19T07:28:46;95512.16;;;19.91;78.18
22647;BME280;11490;42.726;23.268;2023-09-19T07:31:11;95529.00;;;20.12;77.31
22647;BME280;11490;42.726;23.268;2023-09-19T07:33:38;95522.91;;;20.01;77.25
22647;BME280;11490;42.726;23.268;2023-09-19T07:36:03;95540.84;;;20.16;77.31
22647;BME280;11490;42.726;23.268;2023-09-19T07:38:29;95552.91;;;20.28;76.69
22647;BME280;11490;42.726;23.268;2023-09-19T07:41:00;95519.53;;;20.09;77.31
22647;BME280;11490;42.726;23.268;2023-09-19T07:43:26;95542.81;;;20.10;76.53
22647;BME280;11490;42.726;23.268;2023-09-19T07:45:52;95504.91;;;20.10;76.02
22647;BME280;11490;42.726;23.268;2023-09-19T07:48:17;95529.22;;;20.39;75.78
22647;BME280;11490;42.726;23.268;2023-09-19T07:50:42;95528.69;;;20.37;75.97
22647;BME280;11490;42.726;23.268;2023-09-19T07:53:11;95517.66;;;20.33;75.82
22647;BME280;11490;42.726;23.268;2023-09-19T07:55:39;95562.00;;;20.80;76.22
22647;BME280;11490;42.726;23.268;2023-09-19T07:58:06;95536.50;;;20.81;75.04
22647;BME280;11490;42.726;23.268;2023-09-19T08:00:32;95530.78;;;20.64;76.22
22647;BME280;11490;42.726;23.268;2023-09-19T08:03:00;95527.69;;;20.89;75.07
22647;BME280;11490;42.726;23.268;2023-09-19T08:05:26;95533.75;;;20.62;76.10
22647;BME280;11490;42.726;23.268;2023-09-19T08:07:51;95504.91;;;20.90;75.73
22647;BME280;11490;42.726;23.268;2023-09-19T08:10:18;95507.00;;;20.93;73.88
22647;BME280;11490;42.726;23.268;2023-09-19T08:12:45;95501.59;;;20.93;73.89
22647;BME280;11490;42.726;23.268;2023-09-19T08:15:18;95492.31;;;19.77;76.83
22647;BME280;11490;42.726;23.268;2023-09-19T08:17:45;95520.66;;;20.51;76.49
22647;BME280;11490;42.726;23.268;2023-09-19T08:20:11;95532.59;;;20.87;75.17
22647;BME280;11490;42.726;23.268;2023-09-19T08:22:54;95499.97;;;20.92;75.39
22647;BME280;11490;42.726;23.268;2023-09-19T08:25:22;95502.25;;;20.85;74.62
22647;BME280;11490;42.726;23.268;2023-09-19T08:27:49;95495.44;;;20.69;73.92
22647;BME280;11490;42.726;23.268;2023-09-19T08:30:19;95535.97;;;20.79;75.54
22647;BME280;11490;42.726;23.268;2023-09-19T08:32:49;95523.03;;;21.08;73.95
22647;BME280;11490;42.726;23.268;2023-09-19T08:35:15;95492.53;;;21.49;72.45
22647;BME280;11490;42.726;23.268;2023-09-19T08:37:41;95468.88;;;21.03;71.28
22647;BME280;11490;42.726;23.268;2023-09-19T08:40:07;95492.63;;;21.11;72.69
22647;BME280;11490;42.726;23.268;2023-09-19T08:42:55;95518.88;;;21.62;70.98
22647;BME280;11490;42.726;23.268;2023-09-19T08:45:24;95514.09;;;22.00;69.25
22647;BME280;11490;42.726;23.268;2023-09-19T08:48:24;95517.91;;;22.26;69.68
22647;BME280;11490;42.726;23.268;2023-09-19T08:50:58;95524.38;;;22.17;71.17
22647;BME280;11490;42.726;23.268;2023-09-19T08:56:26;95470.13;;;20.92;72.50
22647;BME280;11490;42.726;23.268;2023-09-19T08:59:18;95516.25;;;21.57;71.73
22647;BME280;11490;42.726;23.268;2023-09-19T09:01:49;95456.16;;;20.85;71.80
22647;BME280;11490;42.726;23.268;2023-09-19T09:04:18;95477.16;;;21.44;71.78
22647;BME280;11490;42.726;23.268;2023-09-19T09:06:45;95489.03;;;21.89;70.18
22647;BME280;11490;42.726;23.268;2023-09-19T09:09:14;95485.53;;;22.03;69.86
22647;BME280;11490;42.726;23.268;2023-09-19T09:11:40;95511.28;;;22.19;69.93
22647;BME280;11490;42.726;23.268;2023-09-19T09:14:06;95511.25;;;21.64;71.58
22647;BME280;11490;42.726;23.268;2023-09-19T09:16:39;95474.34;;;21.63;71.54
22647;BME280;11490;42.726;23.268;2023-09-19T09:19:04;95467.63;;;22.02;71.44
22647;BME280;11490;42.726;23.268;2023-09-19T09:21:30;95469.59;;;22.37;70.55
22647;BME280;11490;42.726;23.268;2023-09-19T09:24:26;95478.59;;;21.97;70.71
22647;BME280;11490;42.726;23.268;2023-09-19T09:26:53;95466.78;;;22.15;70.15
22647;BME280;11490;42.726;23.268;2023-09-19T09:29:48;95470.78;;;22.31;69.62
22647;BME280;11490;42.726;23.268;2023-09-19T09:34:47;95467.22;;;22.22;69.80
22647;BME280;11490;42.726;23.268;2023-09-19T09:37:15;95456.16;;;22.05;69.67
22647;BME280;11490;42.726;23.268;2023-09-19T09:39:51;95442.47;;;21.69;69.91
22647;BME280;11490;42.726;23.268;2023-09-19T09:42:35;95429.91;;;21.73;70.53
22647;BME280;11490;42.726;23.268;2023-09-19T09:45:23;95436.41;;;22.26;71.09
22647;BME280;11490;42.726;23.268;2023-09-19T09:47:58;95423.72;;;22.58;68.50
22647;BME280;11490;42.726;23.268;2023-09-19T09:50:37;95379.09;;;22.37;68.00
22647;BME280;11490;42.726;23.268;2023-09-19T09:58:51;95405.28;;;22.55;66.14
22647;BME280;11490;42.726;23.268;2023-09-19T10:01:29;95378.88;;;22.11;67.84
22647;BME280;11490;42.726;23.268;2023-09-19T10:04:32;95416.91;;;21.83;67.99
22647;BME280;11490;42.726;23.268;2023-09-19T10:07:06;95383.88;;;21.68;68.86
22647;BME280;11490;42.726;23.268;2023-09-19T10:09:46;95453.34;;;22.10;68.72
22647;BME280;11490;42.726;23.268;2023-09-19T10:12:16;95414.78;;;22.08;69.87
22647;BME280;11490;42.726;23.268;2023-09-19T10:14:44;95417.22;;;22.45;69.45
22647;BME280;11490;42.726;23.268;2023-09-19T10:17:13;95429.22;;;22.67;67.42
22647;BME280;11490;42.726;23.268;2023-09-19T10:20:04;95440.28;;;22.70;67.11
22647;BME280;11490;42.726;23.268;2023-09-19T10:22:43;95426.47;;;22.80;67.16
22647;BME280;11490;42.726;23.268;2023-09-19T10:25:12;95438.50;;;23.10;65.70
22647;BME280;11490;42.726;23.268;2023-09-19T10:27:39;95410.06;;;22.72;65.64
22647;BME280;11490;42.726;23.268;2023-09-19T10:30:09;95442.31;;;22.64;66.48
22647;BME280;11490;42.726;23.268;2023-09-19T10:32:40;95423.66;;;22.49;67.38
22647;BME280;11490;42.726;23.268;2023-09-19T10:35:07;95434.25;;;22.95;67.13
22647;BME280;11490;42.726;23.268;2023-09-19T10:37:34;95406.09;;;23.00;66.63
22647;BME280;11490;42.726;23.268;2023-09-19T10:40:00;95443.72;;;22.76;65.52
22647;BME280;11490;42.726;23.268;2023-09-19T10:42:26;95407.34;;;22.49;67.44
22647;BME280;11490;42.726;23.268;2023-09-19T10:44:57;95415.00;;;22.92;66.75
22647;BME280;11490;42.726;23.268;2023-09-19T10:47:25;95421.56;;;23.13;66.29
22647;BME280;11490;42.726;23.268;2023-09-19T10:49:51;95395.31;;;23.17;66.55
22647;BME280;11490;42.726;23.268;2023-09-19T10:52:21;95390.88;;;23.21;65.37
22647;BME280;11490;42.726;23.268;2023-09-19T10:54:57;95387.91;;;23.09;66.35
22647;BME280;11490;42.726;23.268;2023-09-19T10:57:25;95411.88;;;23.29;67.21
22647;BME280;11490;42.726;23.268;2023-09-19T11:05:34;95415.69;;;23.51;66.74
22647;BME280;11490;42.726;23.268;2023-09-19T11:08:00;95387.34;;;23.52;65.88
22647;BME280;11490;42.726;23.268;2023-09-19T11:10:48;95388.19;;;23.61;64.36
22647;BME280;11490;42.726;23.268;2023-09-19T11:13:27;95422.75;;;23.52;65.36
22647;BME280;11490;42.726;23.268;2023-09-19T11:16:17;95366.31;;;23.44;63.68
22647;BME280;11490;42.726;23.268;2023-09-19T11:19:03;95374.03;;;23.50;63.54
22647;BME280;11490;42.726;23.268;2023-09-19T11:26:48;95361.50;;;22.79;64.97
22647;BME280;11490;42.726;23.268;2023-09-19T11:32:10;95348.97;;;23.39;64.13
22647;BME280;11490;42.726;23.268;2023-09-19T11:39:39;95353.66;;;23.48;63.41
22647;BME280;11490;42.726;23.268;2023-09-19T11:42:46;95376.03;;;23.67;65.32
22647;BME280;11490;42.726;23.268;2023-09-19T11:48:15;95371.00;;;23.52;66.04
22647;BME280;11490;42.726;23.268;2023-09-19T11:50:44;95322.03;;;23.60;65.05
22647;BME280;11490;42.726;23.268;2023-09-19T11:53:11;95348.97;;;23.88;64.92
22647;BME280;11490;42.726;23.268;2023-09-19T11:55:41;95333.16;;;24.07;63.56
22647;BME280;11490;42.726;23.268;2023-09-19T11:58:09;95356.88;;;24.06;63.02
22647;BME280;11490;42.726;23.268;2023-09-19T12:00:45;95303.31;;;23.76;62.84
22647;BME280;11490;42.726;23.268;2023-09-19T12:03:29;95345.66;;;23.99;62.91
22647;BME280;11490;42.726;23.268;2023-09-19T12:05:55;95321.59;;;24.01;63.34
22647;BME280;11490;42.726;23.268;2023-09-19T12:08:22;95311.97;;;24.12;63.74
22647;BME280;11490;42.726;23.268;2023-09-19T12:10:49;95326.44;;;24.39;62.01
22647;BME280;11490;42.726;23.268;2023-09-19T12:13:19;95331.88;;;24.56;61.77
22647;BME280;11490;42.726;23.268;2023-09-19T12:15:46;95296.75;;;24.46;61.90
22647;BME280;11490;42.726;23.268;2023-09-19T12:18:30;95303.31;;;24.62;61.15
22647;BME280;11490;42.726;23.268;2023-09-19T12:20:56;95276.56;;;24.30;62.17
22647;BME280;11490;42.726;23.268;2023-09-19T12:23:38;95257.78;;;24.02;62.33
22647;BME280;11490;42.726;23.268;2023-09-19T12:26:19;95252.34;;;24.20;61.80
22647;BME280;11490;42.726;23.268;2023-09-19T12:28:45;95238.22;;;24.00;61.79
22647;BME280;11490;42.726;23.268;2023-09-19T12:34:31;95218.84;;;23.93;62.52
22647;BME280;11490;42.726;23.268;2023-09-19T12:37:16;95285.03;;;24.54;61.51
22647;BME280;11490;42.726;23.268;2023-09-19T12:40:08;95257.47;;;23.95;61.58
22647;BME280;11490;42.726;23.268;2023-09-19T12:42:51;95282.47;;;24.32;62.20
22647;BME280;11490;42.726;23.268;2023-09-19T12:45:21;95269.50;;;24.37;61.98
22647;BME280;11490;42.726;23.268;2023-09-19T12:51:01;95301.19;;;24.76;61.13
22647;BME280;11490;42.726;23.268;2023-09-19T12:53:39;95292.63;;;24.86;61.28
22647;BME280;11490;42.726;23.268;2023-09-19T12:56:15;95280.91;;;24.95;60.74
22647;BME280;11490;42.726;23.268;2023-09-19T12:58:59;95243.03;;;24.38;61.26
22647;BME280;11490;42.726;23.268;2023-09-19T13:01:43;95261.31;;;24.46;61.81
22647;BME280;11490;42.726;23.268;2023-09-19T13:04:15;95283.25;;;24.67;62.19
22647;BME280;11490;42.726;23.268;2023-09-19T13:07:11;95224.72;;;24.47;61.52
22647;BME280;11490;42.726;23.268;2023-09-19T13:10:06;95259.00;;;24.65;61.68
22647;BME280;11490;42.726;23.268;2023-09-19T13:15:51;95230.50;;;24.54;60.63
22647;BME280;11490;42.726;23.268;2023-09-19T13:18:26;95235.78;;;24.59;61.48
22647;BME280;11490;42.726;23.268;2023-09-19T13:21:43;95263.44;;;24.78;60.98
22647;BME280;11490;42.726;23.268;2023-09-19T13:24:21;95232.03;;;24.72;60.31
22647;BME280;11490;42.726;23.268;2023-09-19T13:26:48;95242.06;;;24.89;60.24
22647;BME280;11490;42.726;23.268;2023-09-19T13:29:14;95225.16;;;24.66;59.55
22647;BME280;11490;42.726;23.268;2023-09-19T13:31:48;95251.25;;;24.93;59.55
22647;BME280;11490;42.726;23.268;2023-09-19T13:34:35;95225.94;;;24.75;59.82
22647;BME280;11490;42.726;23.268;2023-09-19T13:37:13;95221.13;;;24.72;59.51
22647;BME280;11490;42.726;23.268;2023-09-19T13:39:41;95235.63;;;25.02;59.85
22647;BME280;11490;42.726;23.268;2023-09-19T13:42:44;95200.59;;;24.66;59.76
22647;BME280;11490;42.726;23.268;2023-09-19T13:45:09;95218.84;;;24.91;59.70
22647;BME280;11490;42.726;23.268;2023-09-19T13:47:37;95231.34;;;24.92;59.58
22647;BME280;11490;42.726;23.268;2023-09-19T13:50:04;95217.53;;;24.89;59.90
22647;BME280;11490;42.726;23.268;2023-09-19T13:52:32;95214.56;;;24.65;59.23
22647;BME280;11490;42.726;23.268;2023-09-19T13:54:58;95193.19;;;24.75;59.67
22647;BME280;11490;42.726;23.268;2023-09-19T13:57:26;95209.69;;;24.79;59.76
22647;BME280;11490;42.726;23.268;2023-09-19T13:59:52;95200.91;;;24.73;60.14
22647;BME280;11490;42.726;23.268;2023-09-19T14:02:24;95238.03;;;25.04;60.74
22647;BME280;11490;42.726;23.268;2023-09-19T14:04:51;95215.94;;;24.79;60.65